Bement, Illinois
Current Conditions -  °F | °C
As of 8:19 AM on Sunday 25 Jan 2015 (Local Time) from KDEC Reporting Station
Light Rain Light Rain  
Wind Chill: 36°   Ceiling: 2200
Heat Index: 39°   Visibility: 8mi
Dew Point: 37°   Wind: 5mph
Humidity: 93%   Direction: NA
Pressure: 29.61"   Gusts: NA
Location:  39.92°N, 88.57°W
Report Text: KDEC 251419Z VRB04KT 8SM -RA BKN022 BKN029 OVC035 04/03 A2961 RMK AO2 P0000 T00390028
Loading
Personal Weather Stations






























Interactive Weather Map New forecast layout! Learn more

10-Day Weather Forecast

Advertisements
Track Severe Weather on mobile